DLH4T EDDM-EDDB
Flight info
| Callsign | DLH4T |
|---|---|
| Flight time | 0h 43m |
| Altitude | 30000 |
| Route | AKINI1N AKINI Y104 MAMOR L132 RUDNO T203 TIVDA DCT ETVIS DCT NAVEK DCT GAVLI/N0428F300 T203 ATGUP ATGUP1L |
| Aircraft | A320/M-SDE3FGHIRWY/LB1 |
Departure
| Time | 2026-05-07 05:32 |
|---|---|
| Airport | Munich Airport (EDDM) |
Arrival
| Time | 2026-05-07 06:15 |
|---|---|
| Airport | Berlin Brandenburg Airport (EDDB) |
| Time | Latitude | Longitude | Altitude | Speed | Heading |
|---|---|---|---|---|---|
| 2026-05-07 05:07 | 48.35201 | 11.79342 | 1486 ft | 0 kts | 263° |
| 2026-05-07 05:17 | 48.35203 | 11.79373 | 1473 ft | 4 kts | 263° |
| 2026-05-07 05:17 | 48.35206 | 11.79413 | 1474 ft | 4 kts | 263° |
| 2026-05-07 05:17 | 48.35209 | 11.79453 | 1471 ft | 4 kts | 263° |
| 2026-05-07 05:18 | 48.35212 | 11.79486 | 1472 ft | 4 kts | 274° |
| 2026-05-07 05:18 | 48.35205 | 11.79496 | 1476 ft | 4 kts | 352° |
| 2026-05-07 05:18 | 48.35184 | 11.79500 | 1480 ft | 0 kts | 354° |
| 2026-05-07 05:20 | 48.35186 | 11.79500 | 1474 ft | 0 kts | 354° |
| 2026-05-07 05:20 | 48.35213 | 11.79495 | 1473 ft | 14 kts | 354° |
| 2026-05-07 05:20 | 48.35321 | 11.79478 | 1478 ft | 15 kts | 354° |
| 2026-05-07 05:21 | 48.35415 | 11.79494 | 1475 ft | 13 kts | 31° |
| 2026-05-07 05:21 | 48.35571 | 11.79572 | 1485 ft | 18 kts | 352° |
| 2026-05-07 05:21 | 48.35735 | 11.79542 | 1485 ft | 26 kts | 353° |
| 2026-05-07 05:22 | 48.35915 | 11.79505 | 1483 ft | 27 kts | 353° |
| 2026-05-07 05:22 | 48.36106 | 11.79480 | 1485 ft | 28 kts | 352° |
| 2026-05-07 05:22 | 48.36214 | 11.79511 | 1485 ft | 13 kts | 67° |
| 2026-05-07 05:22 | 48.36226 | 11.79644 | 1485 ft | 12 kts | 83° |
| 2026-05-07 05:23 | 48.36240 | 11.79820 | 1485 ft | 28 kts | 83° |
| 2026-05-07 05:23 | 48.36264 | 11.80121 | 1482 ft | 28 kts | 84° |
| 2026-05-07 05:23 | 48.36287 | 11.80421 | 1485 ft | 30 kts | 83° |
| 2026-05-07 05:23 | 48.36311 | 11.80736 | 1476 ft | 31 kts | 83° |
| 2026-05-07 05:24 | 48.36335 | 11.81060 | 1485 ft | 32 kts | 83° |
| 2026-05-07 05:24 | 48.36359 | 11.81362 | 1482 ft | 26 kts | 81° |
| 2026-05-07 05:24 | 48.36381 | 11.81641 | 1476 ft | 28 kts | 83° |
| 2026-05-07 05:24 | 48.36399 | 11.81863 | 1485 ft | 19 kts | 83° |
| 2026-05-07 05:25 | 48.36388 | 11.82012 | 1485 ft | 11 kts | 85° |
| 2026-05-07 05:25 | 48.36400 | 11.82123 | 1485 ft | 11 kts | 81° |
| 2026-05-07 05:25 | 48.36426 | 11.82266 | 1480 ft | 14 kts | 43° |
| 2026-05-07 05:25 | 48.36499 | 11.82293 | 1485 ft | 0 kts | 353° |
| 2026-05-07 05:29 | 48.36506 | 11.82292 | 1480 ft | 3 kts | 353° |
| 2026-05-07 05:29 | 48.36521 | 11.82289 | 1480 ft | 2 kts | 353° |
| 2026-05-07 05:30 | 48.36530 | 11.82287 | 1485 ft | 1 kts | 352° |
| 2026-05-07 05:30 | 48.36536 | 11.82284 | 1485 ft | 4 kts | 345° |
| 2026-05-07 05:30 | 48.36596 | 11.82212 | 1481 ft | 13 kts | 308° |
| 2026-05-07 05:30 | 48.36649 | 11.82091 | 1481 ft | 15 kts | 302° |
| 2026-05-07 05:31 | 48.36674 | 11.81937 | 1485 ft | 16 kts | 260° |
| 2026-05-07 05:31 | 48.36657 | 11.81686 | 1485 ft | 50 kts | 262° |
| 2026-05-07 05:31 | 48.36584 | 11.80808 | 1486 ft | 116 kts | 263° |
| 2026-05-07 05:31 | 48.36462 | 11.79347 | 1537 ft | 160 kts | 262° |
| 2026-05-07 05:32 | 48.36345 | 11.77592 | 1978 ft | 178 kts | 264° |
| 2026-05-07 05:32 | 48.36226 | 11.75704 | 2760 ft | 181 kts | 263° |
| 2026-05-07 05:32 | 48.36073 | 11.73755 | 3299 ft | 195 kts | 263° |
| 2026-05-07 05:32 | 48.35907 | 11.71681 | 3919 ft | 207 kts | 263° |
| 2026-05-07 05:33 | 48.35839 | 11.69508 | 4809 ft | 211 kts | 277° |
| 2026-05-07 05:33 | 48.36358 | 11.67426 | 5690 ft | 219 kts | 301° |
| 2026-05-07 05:33 | 48.37493 | 11.65842 | 6582 ft | 231 kts | 326° |
| 2026-05-07 05:33 | 48.39073 | 11.65113 | 7294 ft | 251 kts | 349° |
| 2026-05-07 05:34 | 48.40896 | 11.65517 | 7735 ft | 285 kts | 22° |
| 2026-05-07 05:34 | 48.42531 | 11.67335 | 8456 ft | 299 kts | 40° |
| 2026-05-07 05:34 | 48.44085 | 11.69461 | 9340 ft | 305 kts | 41° |
| 2026-05-07 05:34 | 48.45652 | 11.71650 | 10191 ft | 309 kts | 41° |
| 2026-05-07 05:35 | 48.47213 | 11.73842 | 11016 ft | 313 kts | 41° |
| 2026-05-07 05:35 | 48.48889 | 11.76012 | 11550 ft | 328 kts | 31° |
| 2026-05-07 05:35 | 48.50995 | 11.77590 | 11815 ft | 349 kts | 22° |
| 2026-05-07 05:35 | 48.53253 | 11.79094 | 12402 ft | 359 kts | 21° |
| 2026-05-07 05:36 | 48.55560 | 11.80616 | 13166 ft | 364 kts | 22° |
| 2026-05-07 05:36 | 48.57889 | 11.82154 | 13910 ft | 368 kts | 22° |
| 2026-05-07 05:36 | 48.60251 | 11.83721 | 14579 ft | 372 kts | 22° |
| 2026-05-07 05:36 | 48.62636 | 11.85311 | 15256 ft | 377 kts | 22° |
| 2026-05-07 05:37 | 48.65013 | 11.86906 | 15922 ft | 381 kts | 23° |
| 2026-05-07 05:37 | 48.67445 | 11.88543 | 16603 ft | 385 kts | 23° |
| 2026-05-07 05:37 | 48.69900 | 11.90198 | 17275 ft | 389 kts | 23° |
| 2026-05-07 05:37 | 48.72388 | 11.91876 | 17938 ft | 393 kts | 23° |
| 2026-05-07 05:38 | 48.74899 | 11.93572 | 18549 ft | 397 kts | 23° |
| 2026-05-07 05:38 | 48.77430 | 11.95281 | 19127 ft | 400 kts | 23° |
| 2026-05-07 05:38 | 48.79983 | 11.97007 | 19691 ft | 403 kts | 24° |
| 2026-05-07 05:38 | 48.82550 | 11.98747 | 20268 ft | 406 kts | 24° |
| 2026-05-07 05:39 | 48.85148 | 12.00507 | 20827 ft | 410 kts | 24° |
| 2026-05-07 05:39 | 48.87762 | 12.02277 | 21377 ft | 413 kts | 24° |
| 2026-05-07 05:39 | 48.90394 | 12.04062 | 21926 ft | 416 kts | 24° |
| 2026-05-07 05:39 | 48.93048 | 12.05864 | 22460 ft | 419 kts | 24° |
| 2026-05-07 05:40 | 48.95717 | 12.07679 | 22974 ft | 423 kts | 24° |
| 2026-05-07 05:40 | 48.98373 | 12.09490 | 23491 ft | 426 kts | 24° |
| 2026-05-07 05:40 | 49.01089 | 12.11343 | 23919 ft | 429 kts | 24° |
| 2026-05-07 05:40 | 49.03820 | 12.13206 | 24310 ft | 432 kts | 24° |
| 2026-05-07 05:41 | 49.06584 | 12.15094 | 24704 ft | 436 kts | 24° |
| 2026-05-07 05:41 | 49.09359 | 12.16992 | 25096 ft | 440 kts | 24° |
| 2026-05-07 05:41 | 49.12159 | 12.18914 | 25477 ft | 443 kts | 24° |
| 2026-05-07 05:41 | 49.14980 | 12.20853 | 25849 ft | 447 kts | 24° |
| 2026-05-07 05:42 | 49.17822 | 12.22808 | 26217 ft | 450 kts | 25° |
| 2026-05-07 05:42 | 49.20689 | 12.24781 | 26587 ft | 454 kts | 24° |
| 2026-05-07 05:42 | 49.23540 | 12.26745 | 26941 ft | 457 kts | 24° |
| 2026-05-07 05:42 | 49.26450 | 12.28752 | 27300 ft | 460 kts | 24° |
| 2026-05-07 05:43 | 49.29384 | 12.30776 | 27657 ft | 464 kts | 25° |
| 2026-05-07 05:43 | 49.32339 | 12.32814 | 27999 ft | 467 kts | 25° |
| 2026-05-07 05:43 | 49.35316 | 12.34872 | 28355 ft | 471 kts | 25° |
| 2026-05-07 05:43 | 49.38307 | 12.36947 | 28699 ft | 474 kts | 25° |
| 2026-05-07 05:44 | 49.41327 | 12.39043 | 29032 ft | 478 kts | 25° |
| 2026-05-07 05:44 | 49.44366 | 12.41155 | 29355 ft | 481 kts | 25° |
| 2026-05-07 05:44 | 49.47423 | 12.43281 | 29663 ft | 484 kts | 25° |
| 2026-05-07 05:44 | 49.50460 | 12.45393 | 29883 ft | 488 kts | 25° |
| 2026-05-07 05:45 | 49.53526 | 12.47526 | 29922 ft | 477 kts | 25° |
| 2026-05-07 05:45 | 49.59500 | 12.51701 | 29916 ft | 469 kts | 25° |
| 2026-05-07 05:46 | 49.65439 | 12.55862 | 29913 ft | 469 kts | 25° |
| 2026-05-07 05:46 | 49.71378 | 12.60043 | 29908 ft | 469 kts | 25° |
| 2026-05-07 05:47 | 49.77308 | 12.64235 | 29896 ft | 469 kts | 25° |
| 2026-05-07 05:47 | 49.83333 | 12.68487 | 29895 ft | 490 kts | 25° |
| 2026-05-07 05:48 | 49.89644 | 12.72952 | 29896 ft | 507 kts | 25° |
| 2026-05-07 05:48 | 49.96078 | 12.77527 | 29887 ft | 510 kts | 25° |
| 2026-05-07 05:49 | 50.02539 | 12.82134 | 29887 ft | 511 kts | 25° |
| 2026-05-07 05:49 | 50.08945 | 12.86723 | 29890 ft | 510 kts | 25° |
| 2026-05-07 05:50 | 50.15396 | 12.91357 | 29892 ft | 510 kts | 25° |
| 2026-05-07 05:50 | 50.21842 | 12.95990 | 29876 ft | 511 kts | 25° |
| 2026-05-07 05:51 | 50.28257 | 13.00614 | 29868 ft | 511 kts | 25° |
| 2026-05-07 05:51 | 50.34714 | 13.05293 | 29856 ft | 512 kts | 25° |
| 2026-05-07 05:52 | 50.41182 | 13.09980 | 29847 ft | 512 kts | 25° |
| 2026-05-07 05:52 | 50.47648 | 13.14673 | 29840 ft | 512 kts | 25° |
| 2026-05-07 05:53 | 50.54105 | 13.19387 | 29838 ft | 512 kts | 25° |
| 2026-05-07 05:53 | 50.60516 | 13.24098 | 29839 ft | 512 kts | 26° |
| 2026-05-07 05:54 | 50.66964 | 13.28851 | 29843 ft | 511 kts | 26° |
| 2026-05-07 05:54 | 50.73404 | 13.33593 | 29852 ft | 510 kts | 25° |
| 2026-05-07 05:55 | 50.79832 | 13.38344 | 29853 ft | 510 kts | 26° |
| 2026-05-07 05:55 | 50.86254 | 13.43111 | 29851 ft | 509 kts | 25° |
| 2026-05-07 05:55 | 50.89414 | 13.45454 | 29738 ft | 511 kts | 25° |
| 2026-05-07 05:56 | 50.92615 | 13.47735 | 29033 ft | 494 kts | 20° |
| 2026-05-07 05:56 | 50.95849 | 13.49121 | 28584 ft | 470 kts | 9° |
| 2026-05-07 05:56 | 50.99022 | 13.49967 | 28300 ft | 457 kts | 9° |
| 2026-05-07 05:56 | 51.02130 | 13.50812 | 28036 ft | 451 kts | 9° |
| 2026-05-07 05:57 | 51.05206 | 13.51657 | 27752 ft | 448 kts | 9° |
| 2026-05-07 05:57 | 51.08272 | 13.52496 | 27200 ft | 444 kts | 9° |
| 2026-05-07 05:57 | 51.11296 | 13.53319 | 26665 ft | 439 kts | 9° |
| 2026-05-07 05:57 | 51.14285 | 13.54129 | 26140 ft | 433 kts | 9° |
| 2026-05-07 05:58 | 51.17195 | 13.54913 | 25632 ft | 428 kts | 9° |
| 2026-05-07 05:58 | 51.20116 | 13.55697 | 25137 ft | 423 kts | 9° |
| 2026-05-07 05:58 | 51.22998 | 13.56473 | 24649 ft | 417 kts | 9° |
| 2026-05-07 05:58 | 51.25847 | 13.57243 | 24184 ft | 411 kts | 9° |
| 2026-05-07 05:59 | 51.28621 | 13.57993 | 23976 ft | 399 kts | 9° |
| 2026-05-07 05:59 | 51.31342 | 13.58729 | 23524 ft | 396 kts | 9° |
| 2026-05-07 05:59 | 51.34049 | 13.59431 | 22847 ft | 394 kts | 6° |
| 2026-05-07 05:59 | 51.36783 | 13.59283 | 21708 ft | 393 kts | 347° |
| 2026-05-07 06:00 | 51.39347 | 13.58112 | 20945 ft | 382 kts | 342° |
| 2026-05-07 06:00 | 51.41833 | 13.56883 | 20493 ft | 366 kts | 342° |
| 2026-05-07 06:00 | 51.44255 | 13.55693 | 20027 ft | 364 kts | 342° |
| 2026-05-07 06:00 | 51.46680 | 13.54504 | 19557 ft | 364 kts | 342° |
| 2026-05-07 06:01 | 51.49096 | 13.53321 | 19074 ft | 364 kts | 342° |
| 2026-05-07 06:01 | 51.51519 | 13.52134 | 18596 ft | 364 kts | 342° |
| 2026-05-07 06:01 | 51.53937 | 13.50950 | 18097 ft | 364 kts | 342° |
| 2026-05-07 06:01 | 51.56354 | 13.49762 | 17581 ft | 363 kts | 342° |
| 2026-05-07 06:02 | 51.58760 | 13.48579 | 17108 ft | 360 kts | 342° |
| 2026-05-07 06:02 | 51.61153 | 13.47403 | 16632 ft | 359 kts | 342° |
| 2026-05-07 06:02 | 51.63501 | 13.46245 | 16165 ft | 357 kts | 342° |
| 2026-05-07 06:02 | 51.65876 | 13.45068 | 15703 ft | 356 kts | 342° |
| 2026-05-07 06:03 | 51.68246 | 13.43893 | 15242 ft | 356 kts | 342° |
| 2026-05-07 06:03 | 51.70608 | 13.42722 | 14763 ft | 354 kts | 342° |
| 2026-05-07 06:03 | 51.72922 | 13.41579 | 14318 ft | 342 kts | 342° |
| 2026-05-07 06:03 | 51.75161 | 13.40473 | 13867 ft | 332 kts | 342° |
| 2026-05-07 06:04 | 51.77377 | 13.39373 | 13392 ft | 334 kts | 342° |
| 2026-05-07 06:04 | 51.79596 | 13.38266 | 12927 ft | 333 kts | 343° |
| 2026-05-07 06:04 | 51.81757 | 13.37185 | 12482 ft | 331 kts | 343° |
| 2026-05-07 06:04 | 51.83971 | 13.36078 | 12027 ft | 330 kts | 343° |
| 2026-05-07 06:05 | 51.86157 | 13.34986 | 11560 ft | 329 kts | 343° |
| 2026-05-07 06:05 | 51.88338 | 13.33895 | 11107 ft | 327 kts | 343° |
| 2026-05-07 06:05 | 51.90514 | 13.32808 | 10645 ft | 326 kts | 343° |
| 2026-05-07 06:05 | 51.92673 | 13.31728 | 10230 ft | 323 kts | 343° |
| 2026-05-07 06:06 | 51.94788 | 13.30670 | 10105 ft | 311 kts | 343° |
| 2026-05-07 06:06 | 51.96835 | 13.29643 | 9981 ft | 309 kts | 343° |
| 2026-05-07 06:06 | 51.98835 | 13.28640 | 9843 ft | 300 kts | 343° |
| 2026-05-07 06:06 | 52.00834 | 13.27636 | 9334 ft | 302 kts | 343° |
| 2026-05-07 06:07 | 52.02812 | 13.26641 | 8952 ft | 298 kts | 343° |
| 2026-05-07 06:07 | 52.04805 | 13.25638 | 8581 ft | 295 kts | 343° |
| 2026-05-07 06:07 | 52.06739 | 13.24665 | 8284 ft | 289 kts | 343° |
| 2026-05-07 06:07 | 52.08631 | 13.23711 | 7780 ft | 281 kts | 343° |
| 2026-05-07 06:08 | 52.10476 | 13.22779 | 7169 ft | 276 kts | 343° |
| 2026-05-07 06:08 | 52.12300 | 13.21857 | 6546 ft | 273 kts | 343° |
| 2026-05-07 06:08 | 52.14091 | 13.20949 | 5992 ft | 267 kts | 343° |
| 2026-05-07 06:08 | 52.15835 | 13.20061 | 5535 ft | 266 kts | 344° |
| 2026-05-07 06:09 | 52.17610 | 13.19162 | 5090 ft | 267 kts | 344° |
| 2026-05-07 06:09 | 52.19383 | 13.18263 | 4703 ft | 266 kts | 344° |
| 2026-05-07 06:09 | 52.21101 | 13.17390 | 4625 ft | 252 kts | 344° |
| 2026-05-07 06:09 | 52.22718 | 13.16568 | 4543 ft | 233 kts | 344° |
| 2026-05-07 06:10 | 52.24204 | 13.15813 | 4473 ft | 217 kts | 345° |
| 2026-05-07 06:10 | 52.25645 | 13.15309 | 4379 ft | 213 kts | 5° |
| 2026-05-07 06:10 | 52.27001 | 13.16200 | 4240 ft | 215 kts | 45° |
| 2026-05-07 06:10 | 52.27732 | 13.18290 | 3957 ft | 214 kts | 69° |
| 2026-05-07 06:11 | 52.28245 | 13.20526 | 3660 ft | 213 kts | 69° |
| 2026-05-07 06:11 | 52.28771 | 13.22746 | 3376 ft | 207 kts | 69° |
| 2026-05-07 06:11 | 52.29287 | 13.24894 | 3104 ft | 198 kts | 68° |
| 2026-05-07 06:11 | 52.29789 | 13.26980 | 2850 ft | 201 kts | 68° |
| 2026-05-07 06:12 | 52.30315 | 13.29170 | 2548 ft | 212 kts | 69° |
| 2026-05-07 06:12 | 52.30852 | 13.31409 | 2247 ft | 210 kts | 68° |
| 2026-05-07 06:12 | 52.31377 | 13.33596 | 1954 ft | 202 kts | 68° |
| 2026-05-07 06:12 | 52.31873 | 13.35671 | 1690 ft | 191 kts | 67° |
| 2026-05-07 06:13 | 52.32330 | 13.37581 | 1448 ft | 169 kts | 68° |
| 2026-05-07 06:13 | 52.32732 | 13.39261 | 1208 ft | 154 kts | 67° |
| 2026-05-07 06:13 | 52.33128 | 13.40916 | 979 ft | 151 kts | 68° |
| 2026-05-07 06:13 | 52.33491 | 13.42438 | 771 ft | 141 kts | 68° |
| 2026-05-07 06:14 | 52.33839 | 13.43899 | 581 ft | 136 kts | 68° |
| 2026-05-07 06:14 | 52.34184 | 13.45322 | 352 ft | 133 kts | 66° |
| 2026-05-07 06:14 | 52.34522 | 13.46732 | 214 ft | 133 kts | 67° |
| 2026-05-07 06:14 | 52.34827 | 13.48095 | 171 ft | 118 kts | 66° |
| 2026-05-07 06:15 | 52.35097 | 13.49141 | 159 ft | 77 kts | 71° |
| 2026-05-07 06:15 | 52.35237 | 13.49725 | 158 ft | 29 kts | 67° |
| 2026-05-07 06:15 | 52.35349 | 13.49962 | 154 ft | 15 kts | 38° |
| 2026-05-07 06:15 | 52.35432 | 13.50067 | 154 ft | 16 kts | 39° |
| 2026-05-07 06:16 | 52.35525 | 13.50193 | 155 ft | 17 kts | 39° |
| 2026-05-07 06:16 | 52.35600 | 13.50308 | 157 ft | 15 kts | 57° |
| 2026-05-07 06:16 | 52.35641 | 13.50480 | 157 ft | 17 kts | 71° |
| 2026-05-07 06:16 | 52.35684 | 13.50663 | 157 ft | 15 kts | 55° |
| 2026-05-07 06:17 | 52.35783 | 13.50648 | 154 ft | 17 kts | 331° |
| 2026-05-07 06:17 | 52.35891 | 13.50662 | 155 ft | 15 kts | 26° |
| 2026-05-07 06:17 | 52.35975 | 13.50693 | 155 ft | 15 kts | 342° |
| 2026-05-07 06:17 | 52.36055 | 13.50747 | 155 ft | 15 kts | 77° |
| 2026-05-07 06:18 | 52.36071 | 13.50841 | 156 ft | 0 kts | 73° |